Terminal Aerodrome Forecast
Issued by NWS

Home | Current Version | Previous Version | Text Only | Print | Product List | Glossary On
Versions: 1 2 3 4 5 6 7 8 9 10 11 12 13 14 15 16 17 18 19
000
FTUS44 KTSA 221700 RRA
TAFMLC
TAF
KMLC 221740Z 2218/2318 15011KT 5SM -RA BR SCT015 BKN035
      TEMPO 2218/2220 VRB07KT 3SM -TSRA OVC035CB
     FM230100 15009KT 6SM -SHRA BR BKN015 BKN025
     FM230600 16006KT 4SM BR OVC010 PROB30 2306/2312 6SM -SHRA
      BKN008
     FM231200 17009KT 6SM BR OVC012=

USA.gov is the U.S. government's official web portal to all federal, state and local government web resources and services.